Terminal Aerodrome Forecast
Issued by NWS

Home | Current Version | Previous Version | Graphics & Text | Print | Product List | Glossary On
Versions: 1 2 3 4 5 6 7 8 9 10 11 12 13 14 15 16 17 18 19 20 21 22 23 24 25 26
802
FTUS43 KABR 220520
TAFATY
TAF
KATY 220520Z 2206/2306 VRB06KT P6SM VCSH BKN100 OVC120
      TEMPO 2206/2210 VRB20G30KT -TSRA OVC080CB
     FM221000 VRB06KT P6SM SCT100 BKN150
     FM221300 25005KT P6SM BKN100
     FM221900 30012G19KT P6SM SCT110
     FM222100 30015G23KT P6SM BKN070
     FM230000 33013KT P6SM BKN015=

USA.gov is the U.S. government's official web portal to all federal, state and local government web resources and services.